Time;durP1;ratioP1;P1;durP2;ratioP2;P2;SDS_P1;SDS_P2;PMS_P1;PMS_P2;Temp;Humidity;BMP_temperature;BMP_pressure;BME280_temperature;BME280_humidity;BME280_pressure;Samples;Min_cycle;Max_cycle;Signal;HPM_P1;HPM_P2
2022/06/03 00:01:48;;;;;;;7.00;3.88;;;;;;;17.26;71.82;93100.16;2051968;70;20633;-70
2022/06/03 00:04:41;;;;;;;4.65;3.63;;;;;;;17.66;69.73;93098.28;2048385;70;20154;-70
2022/06/03 00:07:23;;;;;;;8.88;3.95;;;;;;;17.62;69.85;93088.84;2048729;70;20161;-70
2022/06/03 00:10:09;;;;;;;10.02;3.90;;;;;;;17.66;69.68;93101.13;2052034;70;20208;-70
2022/06/03 00:12:48;;;;;;;8.07;4.00;;;;;;;17.71;69.43;93091.38;2052093;70;20182;-70
2022/06/03 00:15:39;;;;;;;7.22;3.40;;;;;;;17.63;69.69;93091.03;2052104;70;20682;-70
2022/06/03 00:18:39;;;;;;;3.70;3.30;;;;;;;17.71;68.64;93085.69;2051956;70;20154;-69
2022/06/03 00:21:09;;;;;;;9.88;4.28;;;;;;;17.60;69.76;93080.97;2052087;70;20638;-71
2022/06/03 00:24:07;;;;;;;7.50;3.78;;;;;;;17.61;69.07;93087.38;2051843;70;20142;-70
2022/06/03 00:27:05;;;;;;;7.43;3.83;;;;;;;17.55;69.31;93090.72;2052085;70;20223;-70
2022/06/03 00:29:45;;;;;;;6.65;3.67;;;;;;;17.57;69.44;93092.91;2045982;70;20153;-70
2022/06/03 00:32:33;;;;;;;6.15;3.50;;;;;;;17.57;69.52;93096.47;2052101;70;20695;-70
2022/06/03 00:35:23;;;;;;;8.40;3.53;;;;;;;17.52;69.17;93098.44;2048866;70;20146;-70
2022/06/03 00:38:01;;;;;;;5.35;3.67;;;;;;;17.22;70.52;93097.16;2052213;70;20637;-70
2022/06/03 00:40:54;;;;;;;7.72;4.13;;;;;;;17.40;69.53;93092.22;2052158;70;20229;-70
2022/06/03 00:43:29;;;;;;;4.57;3.72;;;;;;;17.29;70.36;93096.03;2052091;70;20620;-70
2022/06/03 00:46:07;;;;;;;9.48;4.03;;;;;;;17.28;70.13;93083.19;2052053;70;20145;-70
2022/06/03 00:48:45;;;;;;;8.68;3.97;;;;;;;17.28;70.35;93088.88;2052014;70;20233;-70
2022/06/03 00:51:13;;;;;;;6.15;3.70;;;;;;;17.26;70.06;93086.66;2052045;70;20223;-70
2022/06/03 00:53:54;;;;;;;14.23;4.10;;;;;;;17.18;70.67;93083.50;2051907;70;20604;-70
2022/06/03 00:56:57;;;;;;;7.38;4.20;;;;;;;17.04;71.75;93080.03;2052144;70;20197;-70
2022/06/03 00:59:49;;;;;;;7.87;3.57;;;;;;;17.13;70.56;93098.91;2052141;70;20198;-70
2022/06/03 01:02:36;;;;;;;8.07;3.90;;;;;;;17.20;70.30;93099.91;2051923;70;20251;-69
2022/06/03 01:05:03;;;;;;;5.90;4.30;;;;;;;17.16;70.68;93099.75;2052034;70;20647;-70
2022/06/03 01:07:40;;;;;;;4.13;3.72;;;;;;;17.30;68.93;93105.31;2051821;70;20158;-70
2022/06/03 01:10:21;;;;;;;8.70;4.15;;;;;;;17.18;70.85;93089.19;2052024;70;20149;-70
2022/06/03 01:12:55;;;;;;;6.00;3.95;;;;;;;17.22;70.64;93080.06;2051937;70;20588;-70
2022/06/03 01:15:38;;;;;;;6.05;3.88;;;;;;;17.23;70.49;93081.56;2052003;70;20622;-70
2022/06/03 01:18:39;;;;;;;5.82;4.20;;;;;;;17.35;69.69;93078.47;2051866;70;20158;-70
2022/06/03 01:21:28;;;;;;;6.75;4.10;;;;;;;17.21;69.47;93073.66;2051876;70;20153;-69
2022/06/03 01:24:33;;;;;;;5.53;4.13;;;;;;;16.79;72.52;93072.56;2048588;70;20145;-69
2022/06/03 01:26:58;;;;;;;6.15;3.85;;;;;;;17.02;70.78;93057.94;2048395;70;20204;-70
2022/06/03 01:29:44;;;;;;;7.82;3.88;;;;;;;17.13;70.36;93076.16;2051821;70;20511;-70
2022/06/03 01:32:19;;;;;;;8.25;4.25;;;;;;;16.95;71.67;93078.97;2042954;70;20568;-70
2022/06/03 01:35:06;;;;;;;8.45;4.20;;;;;;;17.24;67.35;93071.66;2051678;70;20145;-70
2022/06/03 01:37:49;;;;;;;5.90;3.83;;;;;;;17.21;70.54;93064.41;2048500;70;20138;-70
2022/06/03 01:40:20;;;;;;;5.97;3.85;;;;;;;17.11;71.16;93070.38;2051727;70;20138;-71
2022/06/03 01:43:23;;;;;;;5.60;3.80;;;;;;;17.20;69.28;93072.19;2051561;70;20583;-70
2022/06/03 01:46:08;;;;;;;;;;;;;;;17.22;68.54;93066.59;2048977;70;20149;-69
2022/06/03 01:48:33;;;;;;;5.43;4.00;;;;;;;17.13;69.14;93064.78;2051593;70;20561;-70
2022/06/03 01:51:14;;;;;;;5.45;3.95;;;;;;;17.23;68.99;93061.66;2051652;70;20181;-70
2022/06/03 01:54:07;;;;;;;7.93;4.00;;;;;;;17.22;68.93;93060.16;2051720;70;20238;-72
2022/06/03 01:57:12;;;;;;;5.13;3.70;;;;;;;17.31;68.20;93075.47;2051657;70;20599;-70
2022/06/03 01:59:50;;;;;;;5.30;3.92;;;;;;;17.28;66.77;93068.97;2051823;70;20186;-70
2022/06/03 02:02:45;;;;;;;5.70;4.13;;;;;;;16.97;69.28;93064.84;2051717;70;20135;-70
2022/06/03 02:05:10;;;;;;;4.75;3.88;;;;;;;17.18;67.94;93065.69;2048528;70;20153;-70
2022/06/03 02:07:57;;;;;;;6.05;4.00;;;;;;;17.21;68.09;93062.28;2051670;70;20166;-70
2022/06/03 02:10:45;;;;;;;4.68;3.90;;;;;;;17.23;67.62;93055.97;2051938;70;20146;-70
2022/06/03 02:13:31;;;;;;;4.15;3.67;;;;;;;17.28;67.66;93051.91;2051866;70;20623;-71
2022/06/03 02:16:03;;;;;;;6.93;3.65;;;;;;;17.21;67.37;93048.06;2051852;70;20635;-71
2022/06/03 02:19:03;;;;;;;4.10;3.65;;;;;;;17.03;69.13;93053.69;2051895;70;20142;-70
2022/06/03 02:21:47;;;;;;;4.85;3.78;;;;;;;16.98;69.49;93048.50;2051745;70;20142;-70
2022/06/03 02:24:18;;;;;;;4.75;4.00;;;;;;;17.16;67.89;93045.69;2051682;70;20711;-70
2022/06/03 02:27:18;;;;;;;6.50;3.50;;;;;;;17.11;67.51;93041.94;2051810;70;20134;-70
2022/06/03 02:33:24;;;;;;;4.55;3.63;;;;;;;17.08;67.44;93053.88;2051544;70;20599;-70
2022/06/03 02:36:11;;;;;;;4.10;3.58;;;;;;;17.06;67.91;93050.97;2051806;70;20219;-70
2022/06/03 02:39:08;;;;;;;7.30;3.72;;;;;;;16.95;68.58;93042.00;2051893;70;20211;-69
2022/06/03 02:41:39;;;;;;;5.45;3.75;;;;;;;16.87;68.29;93043.75;2044598;70;20159;-70
2022/06/03 02:44:17;;;;;;;6.22;3.90;;;;;;;16.96;68.15;93045.56;2051938;70;20612;-70
2022/06/03 02:47:24;;;;;;;4.68;3.72;;;;;;;16.93;68.53;93052.53;2051888;70;20146;-70
2022/06/03 02:50:15;;;;;;;5.78;3.53;;;;;;;16.87;68.80;93047.34;2052054;70;20277;-71
2022/06/03 02:53:08;;;;;;;4.72;3.67;;;;;;;16.91;68.28;93046.78;2052196;70;20232;-71
2022/06/03 02:56:01;;;;;;;4.40;4.00;;;;;;;16.97;66.84;93058.41;2052099;70;20138;-70
2022/06/03 02:58:55;;;;;;;5.25;3.47;;;;;;;16.84;68.50;93060.00;2052275;70;20539;-71
2022/06/03 03:01:42;;;;;;;6.10;4.35;;;;;;;16.57;69.54;93063.03;2052031;70;20186;-71
2022/06/03 03:04:35;;;;;;;6.68;4.07;;;;;;;16.74;68.99;93062.41;2052157;70;20146;-70
2022/06/03 03:07:39;;;;;;;4.88;3.78;;;;;;;16.82;67.33;93057.06;2052162;70;20551;-70
2022/06/03 03:10:41;;;;;;;7.03;3.50;;;;;;;16.68;68.47;93048.63;2052133;70;20233;-70
2022/06/03 03:13:10;;;;;;;4.40;4.00;;;;;;;16.61;69.01;93054.69;2052278;70;20208;-70
2022/06/03 03:16:17;;;;;;;5.70;3.90;;;;;;;16.51;69.32;93057.81;2052164;70;20142;-71
2022/06/03 03:19:16;;;;;;;6.28;3.88;;;;;;;16.69;66.56;93057.88;2049127;70;20179;-71
2022/06/03 03:22:05;;;;;;;8.93;4.50;;;;;;;16.58;68.71;93051.00;2052458;70;20558;-72
2022/06/03 03:25:01;;;;;;;8.30;3.83;;;;;;;16.53;68.69;93052.22;2049071;70;20615;-72
2022/06/03 03:27:48;;;;;;;4.10;3.70;;;;;;;16.46;68.57;93054.06;2052324;70;20149;-71
2022/06/03 03:30:29;;;;;;;3.63;3.33;;;;;;;16.57;68.73;93049.53;2052390;70;20146;-72
2022/06/03 03:33:10;;;;;;;5.88;3.65;;;;;;;16.51;68.96;93054.97;2052242;70;20146;-71
2022/06/03 03:36:03;;;;;;;4.78;3.28;;;;;;;16.49;68.73;93058.47;2049124;70;20160;-71
2022/06/03 03:38:31;;;;;;;7.53;4.05;;;;;;;16.42;69.59;93061.66;2052508;70;20158;-71
2022/06/03 03:41:12;;;;;;;4.22;3.83;;;;;;;16.45;69.10;93075.34;2052331;70;20141;-72
2022/06/03 03:44:02;;;;;;;6.80;3.92;;;;;;;16.53;68.88;93074.94;2049096;70;20223;-72
2022/06/03 03:46:56;;;;;;;4.97;3.88;;;;;;;16.13;70.80;93091.63;2052367;70;20138;-71
2022/06/03 03:49:40;;;;;;;5.00;4.32;;;;;;;16.29;70.16;93091.63;2052170;70;20516;-71
2022/06/03 03:52:15;;;;;;;8.27;4.30;;;;;;;16.32;70.20;93078.25;2052234;70;20600;-71
2022/06/03 03:54:59;;;;;;;8.15;4.00;;;;;;;16.46;69.03;93078.91;2048831;70;20162;-72
2022/06/03 03:57:48;;;;;;;4.45;4.00;;;;;;;16.53;67.98;93084.19;2052163;70;20228;-72
2022/06/03 04:00:52;;;;;;;4.57;4.05;;;;;;;16.61;68.63;93092.38;2052416;70;20142;-72
2022/06/03 04:03:42;;;;;;;4.18;3.78;;;;;;;16.75;68.59;93103.66;2052192;70;20182;-72
2022/06/03 04:06:44;;;;;;;4.25;3.70;;;;;;;16.75;68.42;93100.81;2052247;70;20596;-73
2022/06/03 04:09:28;;;;;;;5.10;3.92;;;;;;;16.51;68.18;93097.59;2052481;70;20187;-73
2022/06/03 04:12:15;;;;;;;5.65;4.20;;;;;;;16.56;67.83;93087.16;2052405;70;20654;-73
2022/06/03 04:15:02;;;;;;;5.35;4.00;;;;;;;16.73;67.89;93089.38;2052294;70;20248;-72
2022/06/03 04:17:43;;;;;;;12.88;4.32;;;;;;;16.84;67.16;93079.16;2052187;70;20177;-72
2022/06/03 04:20:43;;;;;;;5.13;3.97;;;;;;;16.83;67.41;93075.59;2052311;70;20135;-73
2022/06/03 04:23:21;;;;;;;4.20;3.80;;;;;;;16.88;68.18;93071.53;2052248;70;20150;-72
2022/06/03 04:26:18;;;;;;;4.63;3.75;;;;;;;16.91;66.69;93075.22;2052220;70;20643;-72
2022/06/03 04:29:38;;;;;;;3.97;3.55;;;;;;;17.01;65.61;93073.53;2049007;70;20143;-72
2022/06/03 04:32:03;;;;;;;4.40;3.70;;;;;;;16.99;66.04;93081.25;2052227;70;20146;-73
2022/06/03 04:34:35;;;;;;;8.02;4.07;;;;;;;17.10;67.06;93085.28;2052047;70;20138;-73
2022/06/03 04:37:19;;;;;;;6.53;3.72;;;;;;;16.86;66.86;93097.06;2048612;70;20162;-72
2022/06/03 04:40:09;;;;;;;4.70;3.67;;;;;;;17.15;67.50;93095.44;2052327;70;20134;-73
2022/06/03 04:42:54;;;;;;;6.10;3.53;;;;;;;17.28;66.36;93098.16;2049048;70;20224;-72
2022/06/03 04:45:41;;;;;;;8.57;3.40;;;;;;;17.41;66.44;93085.19;2052120;70;20134;-73
2022/06/03 04:48:31;;;;;;;4.90;4.38;;;;;;;16.82;67.90;93082.66;2045591;70;20245;-72
2022/06/03 04:51:18;;;;;;;8.90;3.97;;;;;;;17.20;66.55;93091.38;2052075;70;20489;-72
2022/06/03 04:53:54;;;;;;;6.90;3.70;;;;;;;17.35;65.38;93079.22;2052232;70;20185;-72
2022/06/03 04:56:49;;;;;;;4.68;4.05;;;;;;;17.38;67.03;93088.56;2052089;70;20237;-73
2022/06/03 05:00:09;;;;;;;5.10;3.53;;;;;;;17.36;65.38;93079.94;2043990;70;20574;-73
2022/06/03 05:02:58;;;;;;;4.20;3.67;;;;;;;17.43;64.72;93070.28;2034358;70;20156;-73
2022/06/03 05:05:34;;;;;;;5.65;3.58;;;;;;;17.46;64.18;93066.88;2034517;70;20231;-72
2022/06/03 05:08:18;;;;;;;4.53;3.85;;;;;;;17.46;64.71;93066.16;2031743;70;20695;-72
2022/06/03 05:11:02;;;;;;;4.40;3.55;;;;;;;17.43;67.05;93073.88;2034508;70;20234;-73
2022/06/03 05:13:46;;;;;;;4.05;3.13;;;;;;;17.49;65.00;93065.56;2034584;70;20156;-72
2022/06/03 05:16:27;;;;;;;6.20;3.88;;;;;;;17.29;67.21;93073.28;2031775;70;20146;-72
2022/06/03 05:18:52;;;;;;;4.07;3.67;;;;;;;17.41;65.70;93085.19;2031731;70;20211;-73
2022/06/03 05:21:59;;;;;;;5.25;4.15;;;;;;;17.48;65.70;93089.72;2031772;70;20144;-73
2022/06/03 05:24:56;;;;;;;5.45;4.15;;;;;;;17.52;66.28;93089.16;2034585;70;20147;-73
2022/06/03 05:27:34;;;;;;;5.88;3.90;;;;;;;17.53;66.66;93094.19;2034602;70;20155;-73
2022/06/03 05:30:14;;;;;;;6.13;4.30;;;;;;;17.52;68.36;93098.44;2034548;70;20155;-74
2022/06/03 05:32:48;;;;;;;8.13;3.80;;;;;;;17.64;65.43;93091.75;2034383;70;20144;-72
2022/06/03 05:35:14;;;;;;;4.85;3.72;;;;;;;17.72;65.01;93086.41;2034452;70;20598;-74
2022/06/03 05:37:58;;;;;;;4.45;3.67;;;;;;;17.63;65.31;93076.06;2051048;70;20135;-72
2022/06/03 05:40:51;;;;;;;5.07;3.95;;;;;;;17.63;65.21;93073.94;2048752;70;20196;-72
2022/06/03 05:43:45;;;;;;;6.75;4.18;;;;;;;17.85;64.08;93059.19;2052001;70;20531;-73
2022/06/03 05:46:38;;;;;;;4.45;3.90;;;;;;;17.94;64.25;93064.53;2052222;70;20169;-74
2022/06/03 05:49:22;;;;;;;7.40;3.55;;;;;;;18.09;63.24;93050.84;2052171;70;20196;-71
2022/06/03 05:51:56;;;;;;;7.57;3.40;;;;;;;18.13;62.73;93043.19;2052132;70;20153;-74
2022/06/03 05:54:36;;;;;;;9.38;3.97;;;;;;;17.96;62.61;93049.63;2052028;70;20138;-71
2022/06/03 05:57:31;;;;;;;9.80;4.50;;;;;;;17.56;64.14;93051.59;2052048;70;20624;-72
2022/06/03 06:00:02;;;;;;;6.90;4.20;;;;;;;17.80;64.30;93052.59;2052176;70;20234;-74
2022/06/03 06:02:50;;;;;;;4.03;3.60;;;;;;;17.97;62.14;93051.84;2051958;70;20150;-75
2022/06/03 06:05:24;;;;;;;7.15;3.65;;;;;;;18.12;63.48;93064.53;2051979;70;20535;-75
2022/06/03 06:08:11;;;;;;;6.40;3.72;;;;;;;17.78;66.32;93058.94;2052016;70;20647;-75
2022/06/03 06:11:16;;;;;;;5.80;3.58;;;;;;;18.09;62.79;93065.09;2051695;70;20154;-75
2022/06/03 06:13:44;;;;;;;6.30;3.80;;;;;;;18.24;62.49;93064.28;2051745;70;20146;-72
2022/06/03 06:16:42;;;;;;;7.30;3.75;;;;;;;18.26;62.11;93047.97;2051935;70;20161;-71
2022/06/03 06:19:33;;;;;;;16.08;4.03;;;;;;;18.31;62.37;93048.13;2048494;70;20142;-72
2022/06/03 06:22:10;;;;;;;6.10;3.80;;;;;;;18.43;64.33;93048.59;2051768;70;20232;-71
2022/06/03 06:24:43;;;;;;;4.75;3.15;;;;;;;18.48;63.18;93039.53;2051985;70;20173;-71
2022/06/03 06:27:19;;;;;;;4.25;3.85;;;;;;;18.41;64.54;93039.94;2051834;70;20139;-72
2022/06/03 06:30:19;;;;;;;7.32;4.03;;;;;;;18.37;62.40;93040.53;2051922;70;20138;-72
2022/06/03 06:33:03;;;;;;;5.38;3.72;;;;;;;18.19;63.04;93046.28;2048466;70;20683;-72
2022/06/03 06:35:41;;;;;;;6.13;3.95;;;;;;;18.48;63.33;93036.66;2048572;70;20164;-73
2022/06/03 06:38:30;;;;;;;4.90;3.85;;;;;;;18.62;63.59;93024.31;2051853;70;20158;-73
2022/06/03 06:41:01;;;;;;;5.40;3.58;;;;;;;18.79;63.66;93020.69;2051698;70;20606;-71
2022/06/03 06:43:42;;;;;;;5.07;3.60;;;;;;;18.87;63.34;93023.81;2051796;70;20137;-72
2022/06/03 06:46:25;;;;;;;5.85;3.58;;;;;;;18.97;64.38;93014.91;2048521;70;20145;-72
2022/06/03 06:49:15;;;;;;;10.23;3.50;;;;;;;19.13;63.99;93014.72;2051686;70;20658;-72
2022/06/03 06:51:53;;;;;;;6.97;3.28;;;;;;;19.24;64.20;93011.56;2051942;70;20174;-73
2022/06/03 06:54:36;;;;;;;4.25;3.67;;;;;;;19.33;66.28;93006.09;2051943;70;20233;-73
2022/06/03 06:57:09;;;;;;;5.25;3.38;;;;;;;19.37;65.14;93001.25;2051787;70;20631;-73
2022/06/03 06:59:42;;;;;;;9.82;3.60;;;;;;;19.45;64.94;92992.25;2048509;70;20151;-72
2022/06/03 07:02:15;;;;;;;4.43;3.50;;;;;;;19.52;64.96;93002.47;2048342;70;20242;-72
2022/06/03 07:04:48;;;;;;;5.25;3.85;;;;;;;19.64;64.29;92993.56;2051771;70;20163;-73
2022/06/03 07:07:25;;;;;;;8.23;3.85;;;;;;;19.66;62.46;92988.69;2051736;70;20146;-74
2022/06/03 07:09:59;;;;;;;5.95;3.50;;;;;;;19.79;62.63;92989.75;2051522;70;20162;-73
2022/06/03 07:12:48;;;;;;;5.63;3.80;;;;;;;19.83;63.10;92986.31;2048492;70;20194;-73
2022/06/03 07:15:25;;;;;;;4.90;3.70;;;;;;;19.98;64.32;92982.50;2044524;70;20145;-74
2022/06/03 07:21:02;;;;;;;4.93;3.60;;;;;;;20.17;64.53;92980.94;2051527;70;20588;-73
2022/06/03 07:23:34;;;;;;;9.43;3.60;;;;;;;20.18;64.57;92979.53;2051730;70;20203;-72
2022/06/03 07:26:14;;;;;;;8.13;3.88;;;;;;;20.21;64.92;92975.34;2051683;70;20127;-73
2022/06/03 07:28:53;;;;;;;6.18;4.00;;;;;;;20.28;65.20;92968.38;2048452;70;20239;-72
2022/06/03 07:31:38;;;;;;;7.28;3.80;;;;;;;20.39;64.97;92967.28;2051928;70;20147;-73
2022/06/03 07:34:19;;;;;;;6.65;3.60;;;;;;;20.43;64.02;92969.50;2051872;70;20618;-73
2022/06/03 07:36:56;;;;;;;6.47;3.45;;;;;;;20.51;64.11;92961.91;2052233;70;20142;-73
2022/06/03 07:40:01;;;;;;;5.65;3.97;;;;;;;20.56;63.52;92954.19;2052297;70;20231;-73
2022/06/03 07:42:33;;;;;;;9.07;4.20;;;;;;;20.62;60.52;92948.66;2052302;70;20145;-72
2022/06/03 07:45:47;;;;;;;4.60;3.80;;;;;;;20.63;59.55;92946.50;2048951;70;20508;-74
2022/06/03 07:48:21;;;;;;;3.95;3.55;;;;;;;20.80;59.22;92949.16;2048234;70;20157;-73
2022/06/03 07:51:04;;;;;;;3.85;3.50;;;;;;;21.06;61.35;92943.38;2048930;70;20146;-72
2022/06/03 07:53:42;;;;;;;;;;;;;;;21.19;62.36;92935.81;2052397;70;20149;-73
2022/06/03 07:56:09;;;;;;;4.30;3.90;;;;;;;21.43;61.82;92938.56;2048990;70;20435;-73
2022/06/03 07:58:37;;;;;;;5.32;3.75;;;;;;;21.48;59.69;92939.41;2052172;70;20146;-73
2022/06/03 08:01:29;;;;;;;4.53;3.97;;;;;;;21.61;57.50;92928.97;2052278;70;20150;-73
2022/06/03 08:03:55;;;;;;;5.53;3.70;;;;;;;21.81;56.64;92930.19;2052091;70;20154;-73
2022/06/03 08:10:56;;;;;;;4.38;3.97;;;;;;;21.78;57.28;92925.06;2052167;70;20203;-73
2022/06/03 08:12:00;;;;;;;4.00;3.63;;;;;;;22.17;57.05;92923.06;2052081;70;20150;-73
2022/06/03 08:14:27;;;;;;;4.97;3.78;;;;;;;22.37;55.32;92928.53;2052193;70;20188;-72
2022/06/03 08:16:55;;;;;;;6.13;4.28;;;;;;;22.46;55.05;92913.66;2051868;70;20146;-72
2022/06/03 08:19:27;;;;;;;4.13;3.70;;;;;;;22.98;55.05;92918.97;2052038;70;20166;-72
2022/06/03 08:22:03;;;;;;;4.57;3.78;;;;;;;23.43;54.55;92916.13;2049092;70;20169;-73
2022/06/03 08:24:51;;;;;;;4.53;3.60;;;;;;;23.77;49.08;92916.69;2052307;70;20158;-73
2022/06/03 08:27:32;;;;;;;6.97;3.75;;;;;;;23.87;50.90;92912.50;2049124;70;20175;-73
2022/06/03 08:30:02;;;;;;;5.80;3.78;;;;;;;24.14;51.01;92910.72;2049127;70;20143;-73
2022/06/03 08:32:48;;;;;;;5.05;3.75;;;;;;;24.39;48.31;92898.16;2052184;70;20628;-74
2022/06/03 08:35:18;;;;;;;8.25;3.90;;;;;;;24.48;48.06;92898.97;2049150;70;20150;-72
2022/06/03 08:37:55;;;;;;;4.70;4.05;;;;;;;23.96;49.51;92897.56;2052352;70;20146;-72
2022/06/03 08:40:29;;;;;;;4.40;4.00;;;;;;;24.62;48.63;92893.41;2048917;70;20142;-73
2022/06/03 08:43:06;;;;;;;4.05;3.65;;;;;;;24.81;46.27;92892.16;2052337;70;20551;-75
2022/06/03 08:45:50;;;;;;;7.88;4.00;;;;;;;25.18;47.66;92886.06;2051986;70;20515;-74
2022/06/03 08:48:19;;;;;;;4.13;3.72;;;;;;;25.61;48.18;92881.38;2052169;70;20200;-74
2022/06/03 08:50:47;;;;;;;3.90;3.60;;;;;;;25.98;45.00;92888.16;2052226;70;20143;-74
2022/06/03 08:53:35;;;;;;;4.13;3.58;;;;;;;26.07;45.65;92875.25;2048976;70;20146;-75
2022/06/03 08:56:07;;;;;;;4.43;4.03;;;;;;;26.64;45.58;92863.25;2052178;70;20170;-74
2022/06/03 08:58:54;;;;;;;4.27;3.87;;;;;;;26.57;43.46;92864.66;2052200;70;20154;-76
2022/06/03 09:01:25;;;;;;;8.18;3.88;;;;;;;26.13;43.69;92848.56;2052177;70;20155;-73
2022/06/03 09:04:25;;;;;;;6.22;4.00;;;;;;;26.48;45.07;92843.72;2051986;70;20179;-75
2022/06/03 09:07:19;;;;;;;6.97;3.85;;;;;;;27.29;41.85;92825.09;2052161;70;20277;-72
2022/06/03 09:09:54;;;;;;;5.38;4.13;;;;;;;27.28;41.70;92824.38;2052114;70;20216;-73
2022/06/03 09:12:28;;;;;;;4.53;3.90;;;;;;;27.05;41.12;92814.22;2052327;70;20548;-73
2022/06/03 09:14:59;;;;;;;6.57;4.20;;;;;;;27.39;44.23;92801.25;2048889;70;20130;-75
2022/06/03 09:17:48;;;;;;;4.50;4.10;;;;;;;26.92;40.77;92801.22;2052167;70;20154;-74
2022/06/03 09:20:25;;;;;;;4.78;4.30;;;;;;;26.90;40.44;92804.13;2048884;70;20253;-74
2022/06/03 09:22:58;;;;;;;4.85;4.07;;;;;;;27.22;40.70;92789.00;2052181;70;20155;-73
2022/06/03 09:25:24;;;;;;;5.10;4.40;;;;;;;27.59;41.77;92784.63;2052179;70;20143;-73
2022/06/03 09:27:51;;;;;;;5.03;4.00;;;;;;;28.19;39.96;92791.00;2048863;70;20186;-75
2022/06/03 09:30:29;;;;;;;5.35;4.18;;;;;;;27.93;38.78;92788.91;2052253;70;20215;-74
2022/06/03 09:32:57;;;;;;;6.13;4.47;;;;;;;28.01;37.76;92791.06;2048748;70;20143;-73
2022/06/03 09:35:27;;;;;;;4.88;4.18;;;;;;;28.12;38.15;92786.66;2052146;70;20131;-75
2022/06/03 09:37:58;;;;;;;6.55;4.40;;;;;;;28.49;39.73;92784.34;2048907;70;20234;-76
2022/06/03 09:40:29;;;;;;;5.65;4.32;;;;;;;28.51;37.92;92783.66;2052276;70;20134;-75
2022/06/03 09:43:05;;;;;;;4.90;4.20;;;;;;;28.92;39.22;92774.72;2049033;70;20138;-75
2022/06/03 09:45:31;;;;;;;5.78;4.57;;;;;;;28.42;38.95;92771.38;2049053;70;20151;-74
2022/06/03 09:48:00;;;;;;;7.88;4.57;;;;;;;28.32;39.14;92772.13;2052022;70;20670;-74
2022/06/03 09:50:26;;;;;;;8.48;4.50;;;;;;;29.01;38.78;92767.44;2052139;70;20150;-76
2022/06/03 09:53:00;;;;;;;5.88;4.30;;;;;;;29.01;39.78;92771.03;2046138;70;20154;-75
2022/06/03 09:55:31;;;;;;;4.93;4.35;;;;;;;29.37;38.67;92767.13;2051930;70;20150;-74
2022/06/03 09:58:00;;;;;;;6.60;4.00;;;;;;;29.75;38.11;92761.72;2052123;70;20574;-76
2022/06/03 10:00:30;;;;;;;5.18;4.10;;;;;;;29.36;38.85;92762.78;2052103;70;20130;-75
2022/06/03 10:02:58;;;;;;;5.07;3.95;;;;;;;29.25;37.85;92763.63;2048662;70;20201;-74
2022/06/03 10:05:23;;;;;;;5.05;3.72;;;;;;;30.23;36.58;92762.66;2051860;70;20145;-74
2022/06/03 10:08:12;;;;;;;5.65;3.90;;;;;;;30.85;37.09;92760.44;2051909;70;20150;-74
2022/06/03 10:13:24;;;;;;;5.20;4.00;;;;;;;30.31;34.36;92756.75;2048752;70;20150;-73
2022/06/03 10:15:56;;;;;;;6.93;3.92;;;;;;;30.76;34.40;92754.00;2051991;70;20212;-73
2022/06/03 10:18:36;;;;;;;6.13;4.05;;;;;;;31.09;34.27;92744.81;2052035;70;20150;-73
2022/06/03 10:21:05;;;;;;;8.45;3.75;;;;;;;31.25;32.88;92750.38;2052175;70;20150;-75
2022/06/03 10:23:37;;;;;;;7.97;3.90;;;;;;;30.77;34.26;92754.72;2048726;70;20620;-75
2022/06/03 10:26:04;;;;;;;5.60;3.67;;;;;;;31.34;34.46;92748.78;2052054;70;20600;-75
2022/06/03 10:28:39;;;;;;;5.80;3.70;;;;;;;31.81;32.78;92745.06;2052012;70;20174;-77
2022/06/03 10:31:14;;;;;;;3.80;3.42;;;;;;;32.18;33.42;92737.84;2052001;70;20146;-73
2022/06/03 10:33:53;;;;;;;3.70;3.40;;;;;;;32.68;33.04;92732.44;2051967;70;20141;-74
2022/06/03 10:36:24;;;;;;;6.18;3.30;;;;;;;33.14;32.08;92740.16;2048468;70;20141;-74
2022/06/03 10:38:51;;;;;;;7.47;3.28;;;;;;;33.43;30.52;92735.81;2052029;70;20247;-74
2022/06/03 10:41:17;;;;;;;5.80;3.50;;;;;;;33.17;31.54;92734.25;2048707;70;20139;-76
2022/06/03 10:43:43;;;;;;;4.45;3.05;;;;;;;33.14;30.52;92730.69;2052102;70;20699;-75
2022/06/03 10:46:11;;;;;;;3.42;3.10;;;;;;;32.57;30.97;92723.91;2052011;70;20243;-76
2022/06/03 10:48:37;;;;;;;4.40;3.17;;;;;;;32.70;32.07;92730.19;2051798;70;20138;-76
2022/06/03 11:01:06;;;;;;;3.85;2.97;;;;;;;33.25;31.74;92728.94;2051927;70;20588;-74
2022/06/03 11:02:36;;;;;;;4.18;3.10;;;;;;;36.05;27.59;92736.16;2051909;70;20695;-74
2022/06/03 11:05:13;;;;;;;6.78;3.10;;;;;;;33.43;29.23;92732.91;2051926;70;20162;-75
2022/06/03 11:07:39;;;;;;;3.28;2.70;;;;;;;35.32;27.30;92730.50;2051416;70;20273;-76
2022/06/03 11:10:14;;;;;;;3.35;3.05;;;;;;;34.76;28.74;92733.69;2051641;70;20200;-74
2022/06/03 11:12:42;;;;;;;4.13;2.88;;;;;;;34.35;27.78;92731.22;2051970;70;20648;-73
2022/06/03 11:15:31;;;;;;;3.80;3.10;;;;;;;35.14;27.35;92719.38;2051210;70;20635;-72
2022/06/03 11:18:13;;;;;;;5.05;2.90;;;;;;;33.55;29.76;92718.03;2051456;69;20130;-73
2022/06/03 11:20:40;;;;;;;;;;;;;;;34.63;29.17;92718.00;2052448;70;20138;-73
2022/06/03 11:23:08;;;;;;;6.28;3.10;;;;;;;33.33;29.11;92714.16;2052106;70;20130;-74
2022/06/03 11:25:37;;;;;;;4.88;2.95;;;;;;;32.79;29.41;92707.41;2052212;70;20150;-75
2022/06/03 11:28:05;;;;;;;6.72;3.25;;;;;;;32.21;31.61;92716.66;2052168;70;20599;-75
2022/06/03 11:30:52;;;;;;;5.47;2.90;;;;;;;32.24;30.65;92708.59;2052137;70;20273;-76
2022/06/03 11:33:22;;;;;;;4.80;3.00;;;;;;;32.00;32.52;92704.69;2052277;70;20201;-76
2022/06/03 11:36:02;;;;;;;7.15;3.25;;;;;;;32.03;35.05;92702.47;2052461;70;20161;-76
2022/06/03 11:38:37;;;;;;;5.75;3.50;;;;;;;31.91;37.08;92691.78;2065244;69;20569;-74
2022/06/03 11:41:14;;;;;;;7.30;3.50;;;;;;;31.60;36.98;92692.31;2052278;70;20143;-74
2022/06/03 11:43:48;;;;;;;6.15;3.47;;;;;;;31.49;37.02;92682.34;2052206;70;20170;-73
2022/06/03 11:46:19;;;;;;;9.18;3.60;;;;;;;31.32;38.39;92679.00;2051876;70;20166;-74
2022/06/03 11:48:48;;;;;;;9.20;3.35;;;;;;;31.22;38.90;92685.00;2051966;70;20156;-73
2022/06/03 11:51:14;;;;;;;9.20;3.78;;;;;;;30.95;39.06;92684.00;2051977;69;20215;-73
2022/06/03 11:53:49;;;;;;;9.60;3.55;;;;;;;30.93;39.72;92681.84;2052247;69;20142;-73
2022/06/03 11:56:19;;;;;;;5.13;3.45;;;;;;;30.86;39.52;92672.50;2052314;69;20138;-72
2022/06/03 11:58:50;;;;;;;4.70;3.50;;;;;;;30.67;40.46;92670.59;2052190;70;20143;-74
2022/06/03 12:01:34;;;;;;;5.78;3.40;;;;;;;30.53;40.83;92675.16;2052222;70;20176;-71
2022/06/03 12:04:22;;;;;;;10.77;3.78;;;;;;;30.46;40.99;92682.50;2052122;70;20490;-75
2022/06/03 12:06:48;;;;;;;8.50;3.25;;;;;;;30.35;41.09;92675.41;2052156;70;20150;-74
2022/06/03 12:09:36;;;;;;;8.73;3.67;;;;;;;30.23;41.57;92669.75;2052071;70;20162;-77
2022/06/03 12:15:33;;;;;;;6.30;4.05;;;;;;;29.70;42.98;92670.41;2065149;69;20150;-74
2022/06/03 12:18:36;;;;;;;7.40;3.90;;;;;;;29.49;43.58;92664.78;2051988;70;20673;-77
2022/06/03 12:21:38;;;;;;;8.90;3.70;;;;;;;29.41;44.75;92661.97;2052824;69;20168;-75
2022/06/03 12:24:24;;;;;;;5.18;3.60;;;;;;;29.48;45.05;92653.94;2062332;69;20177;-72
2022/06/03 12:26:51;;;;;;;6.38;3.90;;;;;;;29.44;44.40;92656.88;2051784;70;20142;-72
2022/06/03 12:29:34;;;;;;;6.65;3.60;;;;;;;29.30;45.18;92658.47;2051294;70;20241;-71
2022/06/03 12:32:23;;;;;;;6.85;4.22;;;;;;;29.26;45.71;92660.69;2052228;70;20158;-72
2022/06/03 12:34:49;;;;;;;9.40;4.32;;;;;;;29.22;44.64;92657.84;2052112;70;20169;-72
2022/06/03 12:37:30;;;;;;;4.63;3.70;;;;;;;28.84;45.79;92656.69;2052164;70;20199;-72
2022/06/03 12:40:19;;;;;;;5.78;4.03;;;;;;;28.80;46.12;92653.84;2052195;70;20135;-74
2022/06/03 12:42:45;;;;;;;5.50;3.80;;;;;;;28.71;46.07;92666.94;2052105;69;20138;-73
2022/06/03 12:45:23;;;;;;;8.38;4.38;;;;;;;28.58;46.79;92672.09;2052089;70;20154;-72
2022/06/03 12:47:50;;;;;;;9.63;4.47;;;;;;;28.18;47.03;92678.84;2052002;70;20163;-75
2022/06/03 12:50:34;;;;;;;8.65;4.18;;;;;;;28.13;47.57;92695.50;2052027;70;20195;-74
2022/06/03 12:53:06;;;;;;;5.72;4.22;;;;;;;28.06;47.71;92703.50;2052103;70;20134;-74
2022/06/03 12:55:36;;;;;;;6.88;4.68;;;;;;;27.97;47.80;92715.84;2052125;70;20189;-74
2022/06/03 12:58:36;;;;;;;5.13;4.50;;;;;;;27.73;48.17;92723.16;2068054;69;20268;-75
2022/06/03 13:01:05;;;;;;;12.63;5.13;;;;;;;27.63;47.88;92714.50;2052134;69;20170;-75
2022/06/03 13:03:34;;;;;;;12.73;5.00;;;;;;;27.62;47.02;92728.22;2051959;70;20209;-75